sensor_id;sensor_type;location;lat;lon;timestamp;temperature;humidity
43697;DHT22;29301;47.620;19.560;2022-11-20T00:01:45;3.00;99.70
43697;DHT22;29301;47.620;19.560;2022-11-20T00:04:11;3.00;99.80
43697;DHT22;29301;47.620;19.560;2022-11-20T00:06:37;3.00;99.90
43697;DHT22;29301;47.620;19.560;2022-11-20T00:09:03;3.00;99.90
43697;DHT22;29301;47.620;19.560;2022-11-20T00:11:31;2.90;99.90
43697;DHT22;29301;47.620;19.560;2022-11-20T00:13:59;3.00;99.90
43697;DHT22;29301;47.620;19.560;2022-11-20T00:16:26;3.00;99.90
43697;DHT22;29301;47.620;19.560;2022-11-20T00:18:52;3.00;99.90
43697;DHT22;29301;47.620;19.560;2022-11-20T00:21:23;2.90;99.90
43697;DHT22;29301;47.620;19.560;2022-11-20T00:23:50;3.00;99.90
43697;DHT22;29301;47.620;19.560;2022-11-20T00:26:18;3.00;99.90
43697;DHT22;29301;47.620;19.560;2022-11-20T00:28:50;3.00;99.90
43697;DHT22;29301;47.620;19.560;2022-11-20T00:31:16;3.00;99.90
43697;DHT22;29301;47.620;19.560;2022-11-20T00:33:42;3.00;99.90
43697;DHT22;29301;47.620;19.560;2022-11-20T00:36:10;3.00;99.90
43697;DHT22;29301;47.620;19.560;2022-11-20T00:38:36;3.10;99.90
43697;DHT22;29301;47.620;19.560;2022-11-20T00:41:08;3.00;99.90
43697;DHT22;29301;47.620;19.560;2022-11-20T00:43:34;3.00;99.90
43697;DHT22;29301;47.620;19.560;2022-11-20T00:46:05;2.90;99.90
43697;DHT22;29301;47.620;19.560;2022-11-20T00:48:31;2.90;99.90
43697;DHT22;29301;47.620;19.560;2022-11-20T00:50:57;2.90;99.90
43697;DHT22;29301;47.620;19.560;2022-11-20T00:53:23;2.90;99.90
43697;DHT22;29301;47.620;19.560;2022-11-20T00:55:57;2.90;99.90
43697;DHT22;29301;47.620;19.560;2022-11-20T00:58:23;3.00;99.90
43697;DHT22;29301;47.620;19.560;2022-11-20T01:00:49;3.00;99.90
43697;DHT22;29301;47.620;19.560;2022-11-20T01:03:16;3.00;99.90
43697;DHT22;29301;47.620;19.560;2022-11-20T01:05:42;2.90;99.90
43697;DHT22;29301;47.620;19.560;2022-11-20T01:08:08;2.90;99.90
43697;DHT22;29301;47.620;19.560;2022-11-20T01:10:33;2.90;99.90
43697;DHT22;29301;47.620;19.560;2022-11-20T01:12:59;2.90;99.90
43697;DHT22;29301;47.620;19.560;2022-11-20T01:15:43;2.90;99.90
43697;DHT22;29301;47.620;19.560;2022-11-20T01:18:09;2.90;99.90
43697;DHT22;29301;47.620;19.560;2022-11-20T01:20:35;2.90;99.90
43697;DHT22;29301;47.620;19.560;2022-11-20T01:23:04;2.90;99.90
43697;DHT22;29301;47.620;19.560;2022-11-20T01:25:30;2.90;99.90
43697;DHT22;29301;47.620;19.560;2022-11-20T01:27:56;2.90;99.90
43697;DHT22;29301;47.620;19.560;2022-11-20T01:30:22;2.90;99.90
43697;DHT22;29301;47.620;19.560;2022-11-20T01:32:47;2.80;99.90
43697;DHT22;29301;47.620;19.560;2022-11-20T01:35:13;2.80;99.90
43697;DHT22;29301;47.620;19.560;2022-11-20T01:37:38;2.80;99.90
43697;DHT22;29301;47.620;19.560;2022-11-20T01:40:05;2.80;99.90
43697;DHT22;29301;47.620;19.560;2022-11-20T01:42:31;2.80;99.90
43697;DHT22;29301;47.620;19.560;2022-11-20T01:48:12;2.80;99.90
43697;DHT22;29301;47.620;19.560;2022-11-20T01:50:39;2.80;99.90
43697;DHT22;29301;47.620;19.560;2022-11-20T01:53:09;2.80;99.90
43697;DHT22;29301;47.620;19.560;2022-11-20T01:55:39;2.80;99.90
43697;DHT22;29301;47.620;19.560;2022-11-20T01:58:06;2.80;99.90
43697;DHT22;29301;47.620;19.560;2022-11-20T02:00:31;2.80;99.90
43697;DHT22;29301;47.620;19.560;2022-11-20T02:03:00;2.80;99.90
43697;DHT22;29301;47.620;19.560;2022-11-20T02:08:21;2.70;99.90
43697;DHT22;29301;47.620;19.560;2022-11-20T02:10:47;2.70;99.90
43697;DHT22;29301;47.620;19.560;2022-11-20T02:13:12;2.70;99.90
43697;DHT22;29301;47.620;19.560;2022-11-20T02:15:57;2.70;99.90
43697;DHT22;29301;47.620;19.560;2022-11-20T02:18:23;2.70;99.90
43697;DHT22;29301;47.620;19.560;2022-11-20T02:21:01;2.70;99.90
43697;DHT22;29301;47.620;19.560;2022-11-20T02:26:29;2.60;99.90
43697;DHT22;29301;47.620;19.560;2022-11-20T02:28:56;2.60;99.90
43697;DHT22;29301;47.620;19.560;2022-11-20T02:31:22;2.60;99.90
43697;DHT22;29301;47.620;19.560;2022-11-20T02:33:47;2.70;99.90
43697;DHT22;29301;47.620;19.560;2022-11-20T02:36:16;2.70;99.90
43697;DHT22;29301;47.620;19.560;2022-11-20T02:38:43;2.70;99.90
43697;DHT22;29301;47.620;19.560;2022-11-20T02:41:09;2.70;99.90
43697;DHT22;29301;47.620;19.560;2022-11-20T02:43:34;2.70;99.90
43697;DHT22;29301;47.620;19.560;2022-11-20T02:46:00;2.70;99.90
43697;DHT22;29301;47.620;19.560;2022-11-20T02:48:26;2.70;99.90
43697;DHT22;29301;47.620;19.560;2022-11-20T02:50:51;2.70;99.90
43697;DHT22;29301;47.620;19.560;2022-11-20T02:53:17;2.70;99.90
43697;DHT22;29301;47.620;19.560;2022-11-20T02:55:42;2.70;99.90
43697;DHT22;29301;47.620;19.560;2022-11-20T02:58:08;2.70;99.90
43697;DHT22;29301;47.620;19.560;2022-11-20T03:00:34;2.70;99.90
43697;DHT22;29301;47.620;19.560;2022-11-20T03:03:01;2.80;99.90
43697;DHT22;29301;47.620;19.560;2022-11-20T03:05:27;2.80;99.90
43697;DHT22;29301;47.620;19.560;2022-11-20T03:07:53;2.80;99.90
43697;DHT22;29301;47.620;19.560;2022-11-20T03:10:18;2.70;99.90
43697;DHT22;29301;47.620;19.560;2022-11-20T03:12:44;2.80;99.90
43697;DHT22;29301;47.620;19.560;2022-11-20T03:15:10;2.80;99.90
43697;DHT22;29301;47.620;19.560;2022-11-20T03:17:36;2.90;99.90
43697;DHT22;29301;47.620;19.560;2022-11-20T03:20:02;2.90;99.90
43697;DHT22;29301;47.620;19.560;2022-11-20T03:22:31;2.90;99.90
43697;DHT22;29301;47.620;19.560;2022-11-20T03:24:57;2.90;99.90
43697;DHT22;29301;47.620;19.560;2022-11-20T03:27:22;2.90;99.90
43697;DHT22;29301;47.620;19.560;2022-11-20T03:29:48;2.90;99.90
43697;DHT22;29301;47.620;19.560;2022-11-20T03:32:14;2.90;99.90
43697;DHT22;29301;47.620;19.560;2022-11-20T03:34:39;2.90;99.90
43697;DHT22;29301;47.620;19.560;2022-11-20T03:37:05;2.90;99.90
43697;DHT22;29301;47.620;19.560;2022-11-20T03:39:31;2.90;99.90
43697;DHT22;29301;47.620;19.560;2022-11-20T03:41:56;2.90;99.90
43697;DHT22;29301;47.620;19.560;2022-11-20T03:44:22;2.90;99.90
43697;DHT22;29301;47.620;19.560;2022-11-20T03:46:48;2.90;99.90
43697;DHT22;29301;47.620;19.560;2022-11-20T03:49:13;2.90;99.90
43697;DHT22;29301;47.620;19.560;2022-11-20T03:51:39;2.90;99.90
43697;DHT22;29301;47.620;19.560;2022-11-20T03:54:07;2.90;99.90
43697;DHT22;29301;47.620;19.560;2022-11-20T03:56:35;2.90;99.90
43697;DHT22;29301;47.620;19.560;2022-11-20T03:59:02;3.00;99.90
43697;DHT22;29301;47.620;19.560;2022-11-20T04:01:30;3.00;99.90
43697;DHT22;29301;47.620;19.560;2022-11-20T04:03:57;2.90;99.90
43697;DHT22;29301;47.620;19.560;2022-11-20T04:06:43;2.90;99.90
43697;DHT22;29301;47.620;19.560;2022-11-20T04:09:09;2.90;99.90
43697;DHT22;29301;47.620;19.560;2022-11-20T04:11:37;2.90;99.90
43697;DHT22;29301;47.620;19.560;2022-11-20T04:14:06;2.90;99.90
43697;DHT22;29301;47.620;19.560;2022-11-20T04:16:33;2.90;99.90
43697;DHT22;29301;47.620;19.560;2022-11-20T04:19:02;2.90;99.90
43697;DHT22;29301;47.620;19.560;2022-11-20T04:21:28;2.90;99.90
43697;DHT22;29301;47.620;19.560;2022-11-20T04:23:54;2.90;99.90
43697;DHT22;29301;47.620;19.560;2022-11-20T04:26:21;2.90;99.90
43697;DHT22;29301;47.620;19.560;2022-11-20T04:28:47;2.80;99.90
43697;DHT22;29301;47.620;19.560;2022-11-20T04:31:22;2.90;99.90
43697;DHT22;29301;47.620;19.560;2022-11-20T04:33:48;2.90;99.90
43697;DHT22;29301;47.620;19.560;2022-11-20T04:36:16;2.80;99.90
43697;DHT22;29301;47.620;19.560;2022-11-20T04:38:43;2.80;99.90
43697;DHT22;29301;47.620;19.560;2022-11-20T04:41:15;2.80;99.90
43697;DHT22;29301;47.620;19.560;2022-11-20T04:43:49;2.80;99.90
43697;DHT22;29301;47.620;19.560;2022-11-20T04:46:17;2.80;99.90
43697;DHT22;29301;47.620;19.560;2022-11-20T04:48:42;2.80;99.90
43697;DHT22;29301;47.620;19.560;2022-11-20T04:51:08;2.80;99.90
43697;DHT22;29301;47.620;19.560;2022-11-20T04:53:34;2.90;99.90
43697;DHT22;29301;47.620;19.560;2022-11-20T04:56:05;2.90;99.90
43697;DHT22;29301;47.620;19.560;2022-11-20T04:58:31;2.90;99.90
43697;DHT22;29301;47.620;19.560;2022-11-20T05:01:04;2.80;99.90
43697;DHT22;29301;47.620;19.560;2022-11-20T05:03:31;2.70;99.90
43697;DHT22;29301;47.620;19.560;2022-11-20T05:06:00;2.70;99.90
43697;DHT22;29301;47.620;19.560;2022-11-20T05:08:26;2.70;99.90
43697;DHT22;29301;47.620;19.560;2022-11-20T05:10:52;2.80;99.90
43697;DHT22;29301;47.620;19.560;2022-11-20T05:13:17;2.80;99.90
43697;DHT22;29301;47.620;19.560;2022-11-20T05:15:43;2.80;99.90
43697;DHT22;29301;47.620;19.560;2022-11-20T05:18:08;2.80;99.90
43697;DHT22;29301;47.620;19.560;2022-11-20T05:20:34;2.80;99.90
43697;DHT22;29301;47.620;19.560;2022-11-20T05:23:01;2.80;99.90
43697;DHT22;29301;47.620;19.560;2022-11-20T05:25:27;2.80;99.90
43697;DHT22;29301;47.620;19.560;2022-11-20T05:27:53;2.80;99.90
43697;DHT22;29301;47.620;19.560;2022-11-20T05:30:19;2.80;99.90
43697;DHT22;29301;47.620;19.560;2022-11-20T05:32:44;2.80;99.90
43697;DHT22;29301;47.620;19.560;2022-11-20T05:35:10;2.90;99.90
43697;DHT22;29301;47.620;19.560;2022-11-20T05:37:36;2.80;99.90
43697;DHT22;29301;47.620;19.560;2022-11-20T05:40:01;2.80;99.90
43697;DHT22;29301;47.620;19.560;2022-11-20T05:42:30;2.80;99.90
43697;DHT22;29301;47.620;19.560;2022-11-20T05:45:01;2.80;99.90
43697;DHT22;29301;47.620;19.560;2022-11-20T05:47:32;2.90;99.90
43697;DHT22;29301;47.620;19.560;2022-11-20T05:49:58;2.90;99.90
43697;DHT22;29301;47.620;19.560;2022-11-20T05:52:23;2.90;99.90
43697;DHT22;29301;47.620;19.560;2022-11-20T05:54:49;2.90;99.90
43697;DHT22;29301;47.620;19.560;2022-11-20T05:57:16;2.90;99.90
43697;DHT22;29301;47.620;19.560;2022-11-20T05:59:41;2.90;99.90
43697;DHT22;29301;47.620;19.560;2022-11-20T06:02:07;2.90;99.90
43697;DHT22;29301;47.620;19.560;2022-11-20T06:04:33;2.90;99.90
43697;DHT22;29301;47.620;19.560;2022-11-20T06:06:58;2.90;99.90
43697;DHT22;29301;47.620;19.560;2022-11-20T06:09:24;2.90;99.90
43697;DHT22;29301;47.620;19.560;2022-11-20T06:11:50;2.80;99.90
43697;DHT22;29301;47.620;19.560;2022-11-20T06:14:15;2.80;99.90
43697;DHT22;29301;47.620;19.560;2022-11-20T06:16:41;2.80;99.90
43697;DHT22;29301;47.620;19.560;2022-11-20T06:19:06;2.80;99.90
43697;DHT22;29301;47.620;19.560;2022-11-20T06:21:32;2.70;99.90
43697;DHT22;29301;47.620;19.560;2022-11-20T06:23:58;2.70;99.90
43697;DHT22;29301;47.620;19.560;2022-11-20T06:26:26;2.70;99.90
43697;DHT22;29301;47.620;19.560;2022-11-20T06:28:53;2.70;99.90
43697;DHT22;29301;47.620;19.560;2022-11-20T06:31:23;2.70;99.90
43697;DHT22;29301;47.620;19.560;2022-11-20T06:33:49;2.80;99.90
43697;DHT22;29301;47.620;19.560;2022-11-20T06:36:17;2.80;99.90
43697;DHT22;29301;47.620;19.560;2022-11-20T06:38:44;2.80;99.90
43697;DHT22;29301;47.620;19.560;2022-11-20T06:41:15;2.80;99.90
43697;DHT22;29301;47.620;19.560;2022-11-20T06:43:41;2.70;99.90
43697;DHT22;29301;47.620;19.560;2022-11-20T06:46:08;2.70;99.90
43697;DHT22;29301;47.620;19.560;2022-11-20T06:48:34;2.60;99.90
43697;DHT22;29301;47.620;19.560;2022-11-20T06:51:03;2.70;99.90
43697;DHT22;29301;47.620;19.560;2022-11-20T06:53:29;2.70;99.90
43697;DHT22;29301;47.620;19.560;2022-11-20T06:55:56;2.70;99.90
43697;DHT22;29301;47.620;19.560;2022-11-20T06:58:22;2.60;99.90
43697;DHT22;29301;47.620;19.560;2022-11-20T07:00:47;2.50;99.90
43697;DHT22;29301;47.620;19.560;2022-11-20T07:03:13;2.60;99.90
43697;DHT22;29301;47.620;19.560;2022-11-20T07:05:39;2.60;99.90
43697;DHT22;29301;47.620;19.560;2022-11-20T07:08:06;2.60;99.90
43697;DHT22;29301;47.620;19.560;2022-11-20T07:10:32;2.70;99.90
43697;DHT22;29301;47.620;19.560;2022-11-20T07:12:58;2.70;99.90
43697;DHT22;29301;47.620;19.560;2022-11-20T07:15:24;2.80;99.90
43697;DHT22;29301;47.620;19.560;2022-11-20T07:17:51;2.80;99.90
43697;DHT22;29301;47.620;19.560;2022-11-20T07:20:17;2.80;99.90
43697;DHT22;29301;47.620;19.560;2022-11-20T07:22:42;2.80;99.90
43697;DHT22;29301;47.620;19.560;2022-11-20T07:25:09;2.90;99.90
43697;DHT22;29301;47.620;19.560;2022-11-20T07:27:35;2.90;99.90
43697;DHT22;29301;47.620;19.560;2022-11-20T07:30:02;2.80;99.90
43697;DHT22;29301;47.620;19.560;2022-11-20T07:32:28;2.90;99.90
43697;DHT22;29301;47.620;19.560;2022-11-20T07:34:53;2.90;99.90
43697;DHT22;29301;47.620;19.560;2022-11-20T07:37:20;2.80;99.90
43697;DHT22;29301;47.620;19.560;2022-11-20T07:39:45;2.80;99.90
43697;DHT22;29301;47.620;19.560;2022-11-20T07:42:11;2.80;99.90
43697;DHT22;29301;47.620;19.560;2022-11-20T07:44:40;3.40;99.90
43697;DHT22;29301;47.620;19.560;2022-11-20T07:47:05;3.40;99.90
43697;DHT22;29301;47.620;19.560;2022-11-20T07:49:31;3.20;99.90
43697;DHT22;29301;47.620;19.560;2022-11-20T07:51:57;3.10;99.90
43697;DHT22;29301;47.620;19.560;2022-11-20T07:54:23;3.00;99.90
43697;DHT22;29301;47.620;19.560;2022-11-20T07:56:49;2.90;99.90
43697;DHT22;29301;47.620;19.560;2022-11-20T07:59:14;2.80;99.90
43697;DHT22;29301;47.620;19.560;2022-11-20T08:01:41;2.90;99.90
43697;DHT22;29301;47.620;19.560;2022-11-20T08:04:08;2.90;99.90
43697;DHT22;29301;47.620;19.560;2022-11-20T08:06:34;2.90;99.90
43697;DHT22;29301;47.620;19.560;2022-11-20T08:08:59;3.00;99.90
43697;DHT22;29301;47.620;19.560;2022-11-20T08:11:25;2.90;99.90
43697;DHT22;29301;47.620;19.560;2022-11-20T08:14:09;2.90;99.90
43697;DHT22;29301;47.620;19.560;2022-11-20T08:16:39;3.00;99.90
43697;DHT22;29301;47.620;19.560;2022-11-20T08:19:05;3.00;99.90
43697;DHT22;29301;47.620;19.560;2022-11-20T08:21:30;3.10;99.90
43697;DHT22;29301;47.620;19.560;2022-11-20T08:23:57;3.00;99.90
43697;DHT22;29301;47.620;19.560;2022-11-20T08:26:23;3.00;99.90
43697;DHT22;29301;47.620;19.560;2022-11-20T08:28:52;3.10;99.90
43697;DHT22;29301;47.620;19.560;2022-11-20T08:31:20;3.10;99.90
43697;DHT22;29301;47.620;19.560;2022-11-20T08:33:46;3.10;99.90
43697;DHT22;29301;47.620;19.560;2022-11-20T08:36:11;3.20;99.90
43697;DHT22;29301;47.620;19.560;2022-11-20T08:38:37;3.20;99.90
43697;DHT22;29301;47.620;19.560;2022-11-20T08:41:04;3.30;99.90
43697;DHT22;29301;47.620;19.560;2022-11-20T08:44:03;3.20;99.90
43697;DHT22;29301;47.620;19.560;2022-11-20T08:48:59;3.20;99.90
43697;DHT22;29301;47.620;19.560;2022-11-20T08:51:25;3.20;99.90
43697;DHT22;29301;47.620;19.560;2022-11-20T08:53:50;3.20;99.90
43697;DHT22;29301;47.620;19.560;2022-11-20T08:56:17;3.20;99.90
43697;DHT22;29301;47.620;19.560;2022-11-20T08:58:43;3.30;99.90
43697;DHT22;29301;47.620;19.560;2022-11-20T09:01:09;3.30;99.90
43697;DHT22;29301;47.620;19.560;2022-11-20T09:03:35;3.30;99.90
43697;DHT22;29301;47.620;19.560;2022-11-20T09:06:03;3.40;99.90
43697;DHT22;29301;47.620;19.560;2022-11-20T09:08:29;3.50;99.90
43697;DHT22;29301;47.620;19.560;2022-11-20T09:10:56;3.50;99.90
43697;DHT22;29301;47.620;19.560;2022-11-20T09:13:23;3.50;99.90
43697;DHT22;29301;47.620;19.560;2022-11-20T09:16:00;3.60;99.90
43697;DHT22;29301;47.620;19.560;2022-11-20T09:18:27;4.20;99.90
43697;DHT22;29301;47.620;19.560;2022-11-20T09:20:58;4.60;99.90
43697;DHT22;29301;47.620;19.560;2022-11-20T09:23:25;4.90;99.90
43697;DHT22;29301;47.620;19.560;2022-11-20T09:25:50;5.10;99.90
43697;DHT22;29301;47.620;19.560;2022-11-20T09:28:16;5.20;99.90
43697;DHT22;29301;47.620;19.560;2022-11-20T09:30:44;5.40;99.90
43697;DHT22;29301;47.620;19.560;2022-11-20T09:33:09;5.70;99.90
43697;DHT22;29301;47.620;19.560;2022-11-20T09:35:35;5.80;99.90
43697;DHT22;29301;47.620;19.560;2022-11-20T09:38:05;6.00;99.90
43697;DHT22;29301;47.620;19.560;2022-11-20T09:40:32;6.30;99.90
43697;DHT22;29301;47.620;19.560;2022-11-20T09:43:34;6.50;99.90
43697;DHT22;29301;47.620;19.560;2022-11-20T09:46:15;6.20;99.90
43697;DHT22;29301;47.620;19.560;2022-11-20T09:49:07;5.70;96.70
43697;DHT22;29301;47.620;19.560;2022-11-20T09:51:52;5.40;96.40
43697;DHT22;29301;47.620;19.560;2022-11-20T09:54:23;5.20;96.80
43697;DHT22;29301;47.620;19.560;2022-11-20T09:57:03;5.10;97.30
43697;DHT22;29301;47.620;19.560;2022-11-20T09:59:35;5.00;96.90
43697;DHT22;29301;47.620;19.560;2022-11-20T10:02:06;4.90;97.10
43697;DHT22;29301;47.620;19.560;2022-11-20T10:04:39;4.90;97.60
43697;DHT22;29301;47.620;19.560;2022-11-20T10:07:38;4.90;98.40
43697;DHT22;29301;47.620;19.560;2022-11-20T10:10:02;4.90;97.80
43697;DHT22;29301;47.620;19.560;2022-11-20T10:12:31;4.90;96.50
43697;DHT22;29301;47.620;19.560;2022-11-20T10:15:06;4.90;96.40
43697;DHT22;29301;47.620;19.560;2022-11-20T10:29:32;5.10;97.20
43697;DHT22;29301;47.620;19.560;2022-11-20T10:31:56;5.10;96.30
43697;DHT22;29301;47.620;19.560;2022-11-20T10:34:46;5.10;96.20
43697;DHT22;29301;47.620;19.560;2022-11-20T10:37:25;5.10;96.40
43697;DHT22;29301;47.620;19.560;2022-11-20T10:40:05;5.10;96.90
43697;DHT22;29301;47.620;19.560;2022-11-20T10:42:45;5.10;97.20
43697;DHT22;29301;47.620;19.560;2022-11-20T10:47:54;5.20;99.10
43697;DHT22;29301;47.620;19.560;2022-11-20T10:50:21;5.10;97.90
43697;DHT22;29301;47.620;19.560;2022-11-20T10:53:19;5.20;98.10
43697;DHT22;29301;47.620;19.560;2022-11-20T10:55:57;5.20;98.50
43697;DHT22;29301;47.620;19.560;2022-11-20T10:58:33;5.20;98.50
43697;DHT22;29301;47.620;19.560;2022-11-20T11:01:20;5.30;99.90
43697;DHT22;29301;47.620;19.560;2022-11-20T11:03:53;5.40;99.90
43697;DHT22;29301;47.620;19.560;2022-11-20T11:06:52;5.30;99.30
43697;DHT22;29301;47.620;19.560;2022-11-20T11:09:29;5.30;99.10
43697;DHT22;29301;47.620;19.560;2022-11-20T11:11:57;5.70;99.90
43697;DHT22;29301;47.620;19.560;2022-11-20T11:14:23;5.90;99.90
43697;DHT22;29301;47.620;19.560;2022-11-20T11:16:58;5.80;99.90
43697;DHT22;29301;47.620;19.560;2022-11-20T11:19:24;5.70;99.50
43697;DHT22;29301;47.620;19.560;2022-11-20T11:21:53;5.60;99.40
43697;DHT22;29301;47.620;19.560;2022-11-20T11:24:27;5.60;98.70
43697;DHT22;29301;47.620;19.560;2022-11-20T11:27:02;6.00;99.90
43697;DHT22;29301;47.620;19.560;2022-11-20T11:29:30;6.30;99.90
43697;DHT22;29301;47.620;19.560;2022-11-20T11:32:28;6.10;99.90
43697;DHT22;29301;47.620;19.560;2022-11-20T11:35:02;6.00;98.60
43697;DHT22;29301;47.620;19.560;2022-11-20T11:37:33;6.00;97.60
43697;DHT22;29301;47.620;19.560;2022-11-20T11:40:00;5.90;97.30
43697;DHT22;29301;47.620;19.560;2022-11-20T11:42:28;5.90;97.20
43697;DHT22;29301;47.620;19.560;2022-11-20T11:44:56;5.90;97.40
43697;DHT22;29301;47.620;19.560;2022-11-20T11:47:36;5.90;97.00
43697;DHT22;29301;47.620;19.560;2022-11-20T11:55:25;5.80;97.20
43697;DHT22;29301;47.620;19.560;2022-11-20T11:57:54;5.90;96.10
43697;DHT22;29301;47.620;19.560;2022-11-20T12:00:22;5.90;95.80
43697;DHT22;29301;47.620;19.560;2022-11-20T12:03:04;5.80;95.70
43697;DHT22;29301;47.620;19.560;2022-11-20T12:05:49;5.90;95.10
43697;DHT22;29301;47.620;19.560;2022-11-20T12:11:47;6.00;93.00
43697;DHT22;29301;47.620;19.560;2022-11-20T12:14:33;6.00;93.00
43697;DHT22;29301;47.620;19.560;2022-11-20T12:17:01;6.00;92.40
43697;DHT22;29301;47.620;19.560;2022-11-20T12:19:29;6.00;92.60
43697;DHT22;29301;47.620;19.560;2022-11-20T12:22:02;6.10;93.10
43697;DHT22;29301;47.620;19.560;2022-11-20T12:24:36;6.00;92.70
43697;DHT22;29301;47.620;19.560;2022-11-20T12:35:14;6.10;93.60
43697;DHT22;29301;47.620;19.560;2022-11-20T12:37:51;6.20;94.20
43697;DHT22;29301;47.620;19.560;2022-11-20T12:40:35;6.20;94.40
43697;DHT22;29301;47.620;19.560;2022-11-20T12:49:02;6.30;94.70
43697;DHT22;29301;47.620;19.560;2022-11-20T12:51:57;6.20;95.00
43697;DHT22;29301;47.620;19.560;2022-11-20T12:57:50;6.10;95.10
43697;DHT22;29301;47.620;19.560;2022-11-20T13:00:22;6.20;94.90
43697;DHT22;29301;47.620;19.560;2022-11-20T13:03:29;6.20;95.00
43697;DHT22;29301;47.620;19.560;2022-11-20T13:08:35;6.20;95.10
43697;DHT22;29301;47.620;19.560;2022-11-20T13:16:50;6.20;94.90
43697;DHT22;29301;47.620;19.560;2022-11-20T13:19:18;6.20;94.60
43697;DHT22;29301;47.620;19.560;2022-11-20T13:21:46;6.20;94.50
43697;DHT22;29301;47.620;19.560;2022-11-20T13:24:26;6.30;94.30
43697;DHT22;29301;47.620;19.560;2022-11-20T13:29:37;6.80;99.90
43697;DHT22;29301;47.620;19.560;2022-11-20T13:32:06;6.70;99.90
43697;DHT22;29301;47.620;19.560;2022-11-20T13:34:33;6.60;99.90
43697;DHT22;29301;47.620;19.560;2022-11-20T13:36:59;6.50;98.00
43697;DHT22;29301;47.620;19.560;2022-11-20T13:39:33;6.50;96.30
43697;DHT22;29301;47.620;19.560;2022-11-20T13:42:00;6.40;95.70
43697;DHT22;29301;47.620;19.560;2022-11-20T13:46:58;6.40;94.40
43697;DHT22;29301;47.620;19.560;2022-11-20T13:49:29;6.40;94.00
43697;DHT22;29301;47.620;19.560;2022-11-20T14:00:49;6.40;93.00
43697;DHT22;29301;47.620;19.560;2022-11-20T14:03:22;6.30;92.70
43697;DHT22;29301;47.620;19.560;2022-11-20T14:05:55;6.40;92.70
43697;DHT22;29301;47.620;19.560;2022-11-20T14:08:46;6.40;93.30
43697;DHT22;29301;47.620;19.560;2022-11-20T14:11:20;6.30;93.70
43697;DHT22;29301;47.620;19.560;2022-11-20T14:14:21;6.30;93.80
43697;DHT22;29301;47.620;19.560;2022-11-20T14:16:48;6.20;94.40
43697;DHT22;29301;47.620;19.560;2022-11-20T14:19:23;6.20;94.50
43697;DHT22;29301;47.620;19.560;2022-11-20T14:21:55;6.10;94.50
43697;DHT22;29301;47.620;19.560;2022-11-20T14:24:31;6.20;94.40
43697;DHT22;29301;47.620;19.560;2022-11-20T14:26:57;6.10;94.80
43697;DHT22;29301;47.620;19.560;2022-11-20T14:29:28;6.10;95.00
43697;DHT22;29301;47.620;19.560;2022-11-20T14:31:55;6.10;95.10
43697;DHT22;29301;47.620;19.560;2022-11-20T14:34:24;6.10;95.20
43697;DHT22;29301;47.620;19.560;2022-11-20T14:36:53;6.10;95.00
43697;DHT22;29301;47.620;19.560;2022-11-20T14:39:22;6.10;95.10
43697;DHT22;29301;47.620;19.560;2022-11-20T14:41:54;6.10;95.20
43697;DHT22;29301;47.620;19.560;2022-11-20T14:44:31;6.00;95.50
43697;DHT22;29301;47.620;19.560;2022-11-20T14:46:59;6.00;95.80
43697;DHT22;29301;47.620;19.560;2022-11-20T14:49:26;5.90;96.00
43697;DHT22;29301;47.620;19.560;2022-11-20T14:52:09;5.90;96.40
43697;DHT22;29301;47.620;19.560;2022-11-20T14:54:44;5.80;96.90
43697;DHT22;29301;47.620;19.560;2022-11-20T14:59:48;5.70;97.80
43697;DHT22;29301;47.620;19.560;2022-11-20T15:02:13;5.70;98.20
43697;DHT22;29301;47.620;19.560;2022-11-20T15:04:50;5.60;98.40
43697;DHT22;29301;47.620;19.560;2022-11-20T15:07:34;5.50;98.70
43697;DHT22;29301;47.620;19.560;2022-11-20T15:10:09;5.40;99.10
43697;DHT22;29301;47.620;19.560;2022-11-20T15:12:48;5.40;99.70
43697;DHT22;29301;47.620;19.560;2022-11-20T15:15:19;5.30;99.90
43697;DHT22;29301;47.620;19.560;2022-11-20T15:17:46;5.20;99.90
43697;DHT22;29301;47.620;19.560;2022-11-20T15:20:14;5.10;99.90
43697;DHT22;29301;47.620;19.560;2022-11-20T15:22:41;4.90;99.90
43697;DHT22;29301;47.620;19.560;2022-11-20T15:25:17;4.80;99.90
43697;DHT22;29301;47.620;19.560;2022-11-20T15:27:44;4.80;99.90
43697;DHT22;29301;47.620;19.560;2022-11-20T15:30:18;4.80;99.90
43697;DHT22;29301;47.620;19.560;2022-11-20T15:32:45;4.80;99.90
43697;DHT22;29301;47.620;19.560;2022-11-20T15:35:12;4.80;99.90
43697;DHT22;29301;47.620;19.560;2022-11-20T15:37:38;4.90;99.90
43697;DHT22;29301;47.620;19.560;2022-11-20T15:40:05;5.00;99.90
43697;DHT22;29301;47.620;19.560;2022-11-20T15:42:31;5.10;99.90
43697;DHT22;29301;47.620;19.560;2022-11-20T15:44:57;5.10;99.90
43697;DHT22;29301;47.620;19.560;2022-11-20T15:47:29;5.30;99.90
43697;DHT22;29301;47.620;19.560;2022-11-20T15:49:56;5.30;99.90
43697;DHT22;29301;47.620;19.560;2022-11-20T15:52:23;5.40;99.90
43697;DHT22;29301;47.620;19.560;2022-11-20T15:54:49;5.40;99.90
43697;DHT22;29301;47.620;19.560;2022-11-20T15:57:14;5.40;99.90
43697;DHT22;29301;47.620;19.560;2022-11-20T15:59:40;5.30;99.90
43697;DHT22;29301;47.620;19.560;2022-11-20T16:02:13;5.20;99.90
43697;DHT22;29301;47.620;19.560;2022-11-20T16:04:39;5.10;99.90
43697;DHT22;29301;47.620;19.560;2022-11-20T16:07:05;5.00;99.90
43697;DHT22;29301;47.620;19.560;2022-11-20T16:09:31;5.00;99.90
43697;DHT22;29301;47.620;19.560;2022-11-20T16:11:56;5.00;99.90
43697;DHT22;29301;47.620;19.560;2022-11-20T16:14:27;5.00;99.90
43697;DHT22;29301;47.620;19.560;2022-11-20T16:17:12;4.90;99.90
43697;DHT22;29301;47.620;19.560;2022-11-20T16:19:37;4.80;99.90
43697;DHT22;29301;47.620;19.560;2022-11-20T16:22:03;4.80;99.90
43697;DHT22;29301;47.620;19.560;2022-11-20T16:24:29;4.80;99.90
43697;DHT22;29301;47.620;19.560;2022-11-20T16:26:55;4.70;99.90
43697;DHT22;29301;47.620;19.560;2022-11-20T16:29:21;4.70;99.90
43697;DHT22;29301;47.620;19.560;2022-11-20T16:31:47;4.70;99.90
43697;DHT22;29301;47.620;19.560;2022-11-20T16:34:15;4.70;99.90
43697;DHT22;29301;47.620;19.560;2022-11-20T16:36:42;4.70;99.90
43697;DHT22;29301;47.620;19.560;2022-11-20T16:39:09;4.60;99.90
43697;DHT22;29301;47.620;19.560;2022-11-20T16:41:35;4.60;99.90
43697;DHT22;29301;47.620;19.560;2022-11-20T16:44:06;4.60;99.90
43697;DHT22;29301;47.620;19.560;2022-11-20T16:46:33;4.50;99.90
43697;DHT22;29301;47.620;19.560;2022-11-20T16:49:06;4.40;99.90
43697;DHT22;29301;47.620;19.560;2022-11-20T16:51:36;4.20;99.90
43697;DHT22;29301;47.620;19.560;2022-11-20T16:54:03;4.10;99.90
43697;DHT22;29301;47.620;19.560;2022-11-20T16:56:29;4.20;99.90
43697;DHT22;29301;47.620;19.560;2022-11-20T16:58:56;4.20;99.90
43697;DHT22;29301;47.620;19.560;2022-11-20T17:01:23;4.30;99.90